createdAt,value
2022-08-03T00:00:53.959Z,2.30
2022-08-03T00:01:53.956Z,2.50
2022-08-03T00:02:54.194Z,2.40
2022-08-03T00:03:54.045Z,2.60
2022-08-03T00:04:54.018Z,2.50
2022-08-03T00:06:04.673Z,2.50
2022-08-03T00:06:54.149Z,2.40
2022-08-03T00:07:54.076Z,2.00
2022-08-03T00:08:54.090Z,2.60
2022-08-03T00:09:54.105Z,2.70
2022-08-03T00:10:54.126Z,2.70
2022-08-03T00:11:54.145Z,2.60
2022-08-03T00:12:54.167Z,2.40
2022-08-03T00:13:54.185Z,2.50
2022-08-03T00:14:54.204Z,2.50
2022-08-03T00:15:54.236Z,2.50
2022-08-03T00:16:54.243Z,2.40
2022-08-03T00:17:54.263Z,2.50
2022-08-03T00:18:54.282Z,2.60
2022-08-03T00:19:54.301Z,2.60
2022-08-03T00:20:54.314Z,2.60
2022-08-03T00:21:54.337Z,2.50
2022-08-03T00:22:54.352Z,2.50
2022-08-03T00:23:54.372Z,2.70
2022-08-03T00:24:54.396Z,2.50
2022-08-03T00:25:54.404Z,2.40
2022-08-03T00:26:54.425Z,2.60
2022-08-03T00:27:54.447Z,2.40
2022-08-03T00:28:54.486Z,2.40
2022-08-03T00:29:59.912Z,2.50
2022-08-03T00:30:54.498Z,2.60
2022-08-03T00:31:59.327Z,2.50
2022-08-03T00:32:54.536Z,2.50
2022-08-03T00:33:58.229Z,2.30
2022-08-03T00:34:57.883Z,2.60
2022-08-03T00:35:54.595Z,3.00
2022-08-03T00:36:54.612Z,2.70
2022-08-03T00:37:54.631Z,2.50
2022-08-03T00:38:54.648Z,2.40
2022-08-03T00:39:54.678Z,2.70
2022-08-03T00:40:54.695Z,2.30
2022-08-03T00:41:54.708Z,2.30
2022-08-03T00:42:54.725Z,2.40
2022-08-03T00:43:54.753Z,2.50
2022-08-03T00:44:54.763Z,2.80
2022-08-03T00:45:54.782Z,2.90
2022-08-03T00:46:54.804Z,2.90
2022-08-03T00:47:54.820Z,2.50
2022-08-03T00:48:54.902Z,2.50
2022-08-03T00:49:54.853Z,2.40
2022-08-03T00:50:54.873Z,2.30
2022-08-03T00:51:54.991Z,2.60
2022-08-03T00:52:54.909Z,2.70
2022-08-03T00:53:54.930Z,2.90
2022-08-03T00:54:54.951Z,2.50
2022-08-03T00:55:54.969Z,2.70
2022-08-03T00:56:59.693Z,2.50
2022-08-03T00:57:55.001Z,2.60
2022-08-03T00:58:55.022Z,2.30
2022-08-03T00:59:55.042Z,2.70
2022-08-03T01:00:55.088Z,2.70
2022-08-03T01:01:55.075Z,2.20
2022-08-03T01:02:55.097Z,2.10
2022-08-03T01:03:55.114Z,2.60
2022-08-03T01:04:55.132Z,2.80
2022-08-03T01:05:55.158Z,2.40
2022-08-03T01:06:55.177Z,2.50
2022-08-03T01:07:55.191Z,2.40
2022-08-03T01:08:55.204Z,2.40
2022-08-03T01:09:55.230Z,2.10
2022-08-03T01:10:55.241Z,2.60
2022-08-03T01:12:01.079Z,2.60
2022-08-03T01:12:55.282Z,2.40
2022-08-03T01:14:01.080Z,2.50
2022-08-03T01:14:55.316Z,2.30
2022-08-03T01:15:55.333Z,2.40
2022-08-03T01:16:55.356Z,2.60
2022-08-03T01:17:55.372Z,2.70
2022-08-03T01:18:55.391Z,2.50
2022-08-03T01:19:55.410Z,2.60
2022-08-03T01:20:55.427Z,2.40
2022-08-03T01:21:55.448Z,2.50
2022-08-03T01:22:55.561Z,2.00
2022-08-03T01:23:55.483Z,2.60
2022-08-03T01:24:55.503Z,2.70
2022-08-03T01:25:55.517Z,2.70
2022-08-03T01:26:55.536Z,2.50
2022-08-03T01:27:55.555Z,2.90
2022-08-03T01:28:55.576Z,2.50
2022-08-03T01:29:55.592Z,2.30
2022-08-03T01:30:55.608Z,2.40
2022-08-03T01:32:59.548Z,2.80
2022-08-03T01:33:03.034Z,2.90
2022-08-03T01:33:55.665Z,2.50
2022-08-03T01:34:55.688Z,2.60
2022-08-03T01:35:55.703Z,2.80
2022-08-03T01:36:55.726Z,2.10
2022-08-03T01:37:55.738Z,2.40
2022-08-03T01:38:55.757Z,2.60
2022-08-03T01:39:55.776Z,1.90
2022-08-03T01:40:55.799Z,2.80
2022-08-03T01:41:55.815Z,2.50
2022-08-03T01:42:55.830Z,2.60
2022-08-03T01:44:28.398Z,2.50
2022-08-03T01:44:55.868Z,2.60
2022-08-03T01:45:55.886Z,2.60
2022-08-03T01:46:55.903Z,2.50
2022-08-03T01:47:55.925Z,2.20
2022-08-03T01:48:56.025Z,2.40
2022-08-03T01:49:56.057Z,2.70
2022-08-03T01:50:55.978Z,2.40
2022-08-03T01:52:03.934Z,2.70
2022-08-03T01:52:56.014Z,2.30
2022-08-03T01:53:56.039Z,2.40
2022-08-03T01:54:56.050Z,2.80
2022-08-03T01:55:56.080Z,2.80
2022-08-03T01:56:56.090Z,2.30
2022-08-03T01:58:05.299Z,2.50
2022-08-03T01:58:56.122Z,2.40
2022-08-03T01:59:56.141Z,2.50
2022-08-03T02:00:56.223Z,2.10
2022-08-03T02:02:28.793Z,2.30
2022-08-03T02:02:56.191Z,2.30
2022-08-03T02:04:00.927Z,2.10
2022-08-03T02:04:56.231Z,2.40
2022-08-03T02:06:17.837Z,2.60
2022-08-03T02:07:01.673Z,2.40
2022-08-03T02:07:56.287Z,2.60
2022-08-03T02:08:56.305Z,2.40
2022-08-03T02:09:56.325Z,2.40
2022-08-03T02:10:56.343Z,2.50
2022-08-03T02:11:56.356Z,2.50
2022-08-03T02:12:56.377Z,2.30
2022-08-03T02:13:56.399Z,2.40
2022-08-03T02:14:56.509Z,2.50
2022-08-03T02:15:56.434Z,2.60
2022-08-03T02:16:56.453Z,2.60
2022-08-03T02:17:56.469Z,2.40
2022-08-03T02:18:56.484Z,2.30
2022-08-03T02:19:56.504Z,2.60
2022-08-03T02:20:56.520Z,2.70
2022-08-03T02:22:01.402Z,2.40
2022-08-03T02:22:56.559Z,2.70
2022-08-03T02:23:56.580Z,2.70
2022-08-03T02:24:56.698Z,2.50
2022-08-03T02:25:56.608Z,2.50
2022-08-03T02:26:56.631Z,2.50
2022-08-03T02:27:56.654Z,2.50
2022-08-03T02:28:56.672Z,2.50
2022-08-03T02:29:56.685Z,2.40
2022-08-03T02:30:56.702Z,2.40
2022-08-03T02:31:56.732Z,2.30
2022-08-03T02:32:56.744Z,2.40
2022-08-03T02:33:56.757Z,2.50
2022-08-03T02:34:56.775Z,2.80
2022-08-03T02:35:56.794Z,2.70
2022-08-03T02:36:56.812Z,2.40
2022-08-03T02:37:56.829Z,2.10
2022-08-03T02:38:56.848Z,2.40
2022-08-03T02:39:56.865Z,2.50
2022-08-03T02:40:56.881Z,2.70
2022-08-03T02:41:56.898Z,2.20
2022-08-03T02:42:56.921Z,2.30
2022-08-03T02:44:05.869Z,2.50
2022-08-03T02:44:56.956Z,2.60
2022-08-03T02:45:56.973Z,2.70
2022-08-03T02:46:56.988Z,2.40
2022-08-03T02:47:57.010Z,2.60
2022-08-03T02:48:57.065Z,2.30
2022-08-03T02:49:57.105Z,2.60
2022-08-03T02:50:57.063Z,2.80
2022-08-03T02:51:57.088Z,2.60
2022-08-03T02:52:57.100Z,2.40
2022-08-03T02:53:57.118Z,2.30
2022-08-03T02:54:57.138Z,2.80
2022-08-03T02:55:57.152Z,2.40
2022-08-03T02:56:57.173Z,2.30
2022-08-03T02:57:57.189Z,2.90
2022-08-03T02:58:57.208Z,2.60
2022-08-03T02:59:57.229Z,2.40
2022-08-03T03:00:57.327Z,2.60
2022-08-03T03:01:57.261Z,2.60
2022-08-03T03:02:57.281Z,2.50
2022-08-03T03:03:57.401Z,2.30
2022-08-03T03:05:50.610Z,2.30
2022-08-03T03:05:57.541Z,2.60
2022-08-03T03:06:57.355Z,2.80
2022-08-03T03:07:57.371Z,2.80
2022-08-03T03:08:59.773Z,2.50
2022-08-03T03:09:57.403Z,2.70
2022-08-03T03:10:57.422Z,2.50
2022-08-03T03:11:57.441Z,2.80
2022-08-03T03:12:57.475Z,2.40
2022-08-03T03:13:57.476Z,2.80
2022-08-03T03:14:57.499Z,2.50
2022-08-03T03:15:57.518Z,2.70
2022-08-03T03:16:57.902Z,2.60
2022-08-03T03:17:57.598Z,2.90
2022-08-03T03:18:57.567Z,2.90
2022-08-03T03:19:57.587Z,2.70
2022-08-03T03:20:57.611Z,2.80
2022-08-03T03:21:57.623Z,2.60
2022-08-03T03:22:57.651Z,2.40
2022-08-03T03:23:57.665Z,2.60
2022-08-03T03:24:57.677Z,2.20
2022-08-03T03:25:57.694Z,2.70
2022-08-03T03:26:57.713Z,2.60
2022-08-03T03:27:57.842Z,2.60
2022-08-03T03:28:57.749Z,2.50
2022-08-03T03:29:57.776Z,2.40
2022-08-03T03:30:57.783Z,2.70
2022-08-03T03:31:57.901Z,2.40
2022-08-03T03:32:57.821Z,2.80
2022-08-03T03:33:57.832Z,2.70
2022-08-03T03:34:57.862Z,2.40
2022-08-03T03:35:57.870Z,3.10
2022-08-03T03:36:57.891Z,2.40
2022-08-03T03:37:57.922Z,2.70
2022-08-03T03:38:57.925Z,2.20
2022-08-03T03:39:57.947Z,2.40
2022-08-03T03:40:57.960Z,2.50
2022-08-03T03:41:57.974Z,2.60
2022-08-03T03:42:57.997Z,2.60
2022-08-03T03:43:58.017Z,2.50
2022-08-03T03:44:58.035Z,2.80
2022-08-03T03:45:58.049Z,2.50
2022-08-03T03:46:58.065Z,2.50
2022-08-03T03:47:58.085Z,2.60
2022-08-03T03:48:58.163Z,2.50
2022-08-03T03:49:58.123Z,2.70
2022-08-03T03:50:58.144Z,2.70
2022-08-03T03:51:58.162Z,2.40
2022-08-03T03:52:58.282Z,2.80
2022-08-03T03:53:58.190Z,2.30
2022-08-03T03:55:00.992Z,2.40
2022-08-03T03:56:01.999Z,2.60
2022-08-03T03:56:58.243Z,2.70
2022-08-03T03:57:58.264Z,2.30
2022-08-03T03:58:58.283Z,2.30
2022-08-03T03:59:58.298Z,3.00
2022-08-03T04:00:58.432Z,2.60
2022-08-03T04:01:59.214Z,2.40
2022-08-03T04:02:58.352Z,2.70
2022-08-03T04:03:58.378Z,2.80
2022-08-03T04:04:58.386Z,2.50
2022-08-03T04:05:58.400Z,2.70
2022-08-03T04:06:58.425Z,2.60
2022-08-03T04:07:58.439Z,2.50
2022-08-03T04:08:58.458Z,2.50
2022-08-03T04:09:59.187Z,2.60
2022-08-03T04:10:58.489Z,2.50
2022-08-03T04:11:58.510Z,2.90
2022-08-03T04:12:58.531Z,2.60
2022-08-03T04:14:02.064Z,2.90
2022-08-03T04:14:58.569Z,2.70
2022-08-03T04:15:58.578Z,2.80
2022-08-03T04:16:58.597Z,2.50
2022-08-03T04:17:58.617Z,2.40
2022-08-03T04:18:58.634Z,2.70
2022-08-03T04:19:58.651Z,2.70
2022-08-03T04:20:58.680Z,2.80
2022-08-03T04:21:58.690Z,2.60
2022-08-03T04:22:58.706Z,2.40
2022-08-03T04:23:58.723Z,2.30
2022-08-03T04:24:58.744Z,2.40
2022-08-03T04:25:58.785Z,2.80
2022-08-03T04:26:58.774Z,2.30
2022-08-03T04:28:30.005Z,2.60
2022-08-03T04:28:58.815Z,2.70
2022-08-03T04:29:58.837Z,2.50
2022-08-03T04:30:58.848Z,2.70
2022-08-03T04:31:58.865Z,2.70
2022-08-03T04:32:58.880Z,2.80
2022-08-03T04:33:58.899Z,2.70
2022-08-03T04:34:58.917Z,3.00
2022-08-03T04:36:01.618Z,2.40
2022-08-03T04:36:58.959Z,2.80
2022-08-03T04:37:58.968Z,2.90
2022-08-03T04:38:58.988Z,3.10
2022-08-03T04:39:59.005Z,2.90
2022-08-03T04:40:59.028Z,2.50
2022-08-03T04:42:02.202Z,2.30
2022-08-03T04:42:59.082Z,2.90
2022-08-03T04:43:59.075Z,2.70
2022-08-03T04:45:01.641Z,2.50
2022-08-03T04:45:59.112Z,2.50
2022-08-03T04:46:59.131Z,2.70
2022-08-03T04:47:59.148Z,2.90
2022-08-03T04:48:59.220Z,2.70
2022-08-03T04:49:59.285Z,2.90
2022-08-03T04:50:59.199Z,2.90
2022-08-03T04:51:59.218Z,2.70
2022-08-03T04:52:59.246Z,2.60
2022-08-03T04:53:59.255Z,2.90
2022-08-03T04:54:59.270Z,2.90
2022-08-03T04:55:59.290Z,2.70
2022-08-03T04:56:59.305Z,2.90
2022-08-03T04:57:59.321Z,2.70
2022-08-03T04:58:59.345Z,2.60
2022-08-03T05:00:03.081Z,2.50
2022-08-03T05:00:59.376Z,2.50
2022-08-03T05:01:59.550Z,2.60
2022-08-03T05:02:59.412Z,2.70
2022-08-03T05:03:59.427Z,2.50
2022-08-03T05:04:59.446Z,2.70
2022-08-03T05:06:01.934Z,2.50
2022-08-03T05:06:59.486Z,2.70
2022-08-03T05:08:00.794Z,2.50
2022-08-03T05:08:59.516Z,2.50
2022-08-03T05:10:01.387Z,2.30
2022-08-03T05:10:59.681Z,2.80
2022-08-03T05:11:59.572Z,2.60
2022-08-03T05:12:59.589Z,2.70
2022-08-03T05:13:59.607Z,2.60
2022-08-03T05:14:59.623Z,2.50
2022-08-03T05:15:59.642Z,3.00
2022-08-03T05:16:59.656Z,2.70
2022-08-03T05:17:59.674Z,2.80
2022-08-03T05:18:59.698Z,2.60
2022-08-03T05:19:59.710Z,2.30
2022-08-03T05:20:59.733Z,2.60
2022-08-03T05:21:59.745Z,2.40
2022-08-03T05:22:59.764Z,2.60
2022-08-03T05:23:59.780Z,2.50
2022-08-03T05:24:59.804Z,2.60
2022-08-03T05:25:59.865Z,2.50
2022-08-03T05:26:59.835Z,2.20
2022-08-03T05:27:59.850Z,2.50
2022-08-03T05:28:59.873Z,2.80
2022-08-03T05:30:31.253Z,2.50
2022-08-03T05:30:59.901Z,2.50
2022-08-03T05:32:01.186Z,2.40
2022-08-03T05:32:59.948Z,2.40
2022-08-03T05:33:59.957Z,2.70
2022-08-03T05:34:59.977Z,2.70
2022-08-03T05:36:03.454Z,2.50
2022-08-03T05:37:00.010Z,2.70
2022-08-03T05:38:00.031Z,2.60
2022-08-03T05:39:02.807Z,2.30
2022-08-03T05:40:00.091Z,2.60
2022-08-03T05:41:21.459Z,2.80
2022-08-03T05:42:00.107Z,2.50
2022-08-03T05:43:00.117Z,2.70
2022-08-03T05:44:00.237Z,2.50
2022-08-03T05:45:00.254Z,2.60
2022-08-03T05:46:11.457Z,2.70
2022-08-03T05:47:00.189Z,2.50
2022-08-03T05:48:00.348Z,2.50
2022-08-03T05:49:00.340Z,2.50
2022-08-03T05:50:00.404Z,2.70
2022-08-03T05:51:00.334Z,2.70
2022-08-03T05:52:13.215Z,2.70
2022-08-03T05:53:00.291Z,2.50
2022-08-03T05:54:00.311Z,2.80
2022-08-03T05:55:00.338Z,2.70
2022-08-03T05:56:02.688Z,2.70
2022-08-03T05:57:00.361Z,2.50
2022-08-03T05:58:00.390Z,3.00
2022-08-03T05:59:16.329Z,2.80
2022-08-03T06:00:00.415Z,2.80
2022-08-03T06:01:00.534Z,2.50
2022-08-03T06:02:00.495Z,2.60
2022-08-03T06:03:00.479Z,2.60
2022-08-03T06:04:00.490Z,2.50
2022-08-03T06:05:00.506Z,2.70
2022-08-03T06:06:00.843Z,2.40
2022-08-03T06:07:00.540Z,2.40
2022-08-03T06:08:00.558Z,2.70
2022-08-03T06:09:00.578Z,2.90
2022-08-03T06:10:36.357Z,2.70
2022-08-03T06:11:00.620Z,2.60
2022-08-03T06:12:00.630Z,2.50
2022-08-03T06:13:00.649Z,2.40
2022-08-03T06:14:00.664Z,2.90
2022-08-03T06:15:00.682Z,2.40
2022-08-03T06:16:00.711Z,2.70
2022-08-03T06:17:00.725Z,2.80
2022-08-03T06:18:02.203Z,2.70
2022-08-03T06:19:00.759Z,2.40
2022-08-03T06:20:00.771Z,2.40
2022-08-03T06:21:09.574Z,2.90
2022-08-03T06:22:00.905Z,2.80
2022-08-03T06:23:01.441Z,2.40
2022-08-03T06:24:00.840Z,2.80
2022-08-03T06:25:04.804Z,2.60
2022-08-03T06:26:00.885Z,2.40
2022-08-03T06:27:00.898Z,2.80
2022-08-03T06:28:00.925Z,2.40
2022-08-03T06:29:00.941Z,2.90
2022-08-03T06:30:00.956Z,2.80
2022-08-03T06:31:01.106Z,2.60
2022-08-03T06:32:00.994Z,2.90
2022-08-03T06:33:01.011Z,2.30
2022-08-03T06:34:34.303Z,2.40
2022-08-03T06:35:01.051Z,2.70
2022-08-03T06:36:01.060Z,2.40
2022-08-03T06:37:02.324Z,3.10
2022-08-03T06:38:01.097Z,2.60
2022-08-03T06:39:01.214Z,2.60
2022-08-03T06:40:01.139Z,2.80
2022-08-03T06:41:01.151Z,2.50
2022-08-03T06:42:01.172Z,2.50
2022-08-03T06:43:01.190Z,2.60
2022-08-03T06:44:03.531Z,2.70
2022-08-03T06:45:01.226Z,2.30
2022-08-03T06:46:01.245Z,2.90
2022-08-03T06:47:01.265Z,2.70
2022-08-03T06:48:01.288Z,2.70
2022-08-03T06:49:01.436Z,2.60
2022-08-03T06:50:12.559Z,2.40
2022-08-03T06:51:01.358Z,2.60
2022-08-03T06:52:05.315Z,2.70
2022-08-03T06:53:01.380Z,2.70
2022-08-03T06:54:01.419Z,2.50
2022-08-03T06:55:01.409Z,2.70
2022-08-03T06:56:01.428Z,2.50
2022-08-03T06:57:01.484Z,2.60
2022-08-03T06:58:03.631Z,2.60
2022-08-03T06:59:01.485Z,2.60
2022-08-03T07:00:08.075Z,2.60
2022-08-03T07:01:01.572Z,2.60
2022-08-03T07:02:01.544Z,2.50
2022-08-03T07:03:01.558Z,2.50
2022-08-03T07:04:01.579Z,2.60
2022-08-03T07:05:01.604Z,2.30
2022-08-03T07:06:01.611Z,2.50
2022-08-03T07:07:01.628Z,2.70
2022-08-03T07:08:01.652Z,2.60
2022-08-03T07:09:01.666Z,2.60
2022-08-03T07:10:02.267Z,2.60
2022-08-03T07:11:01.721Z,2.90
2022-08-03T07:12:01.724Z,2.30
2022-08-03T07:13:01.740Z,2.50
2022-08-03T07:14:01.762Z,2.70
2022-08-03T07:15:03.150Z,2.50
2022-08-03T07:16:01.800Z,2.60
2022-08-03T07:17:01.820Z,2.60
2022-08-03T07:18:01.870Z,2.60
2022-08-03T07:19:01.855Z,2.70
2022-08-03T07:20:01.869Z,2.70
2022-08-03T07:21:01.896Z,2.20
2022-08-03T07:22:04.250Z,2.60
2022-08-03T07:23:01.928Z,3.00
2022-08-03T07:24:01.948Z,3.00
2022-08-03T07:25:01.965Z,3.10
2022-08-03T07:26:01.988Z,2.80
2022-08-03T07:27:02.007Z,2.80
2022-08-03T07:28:02.022Z,3.20
2022-08-03T07:29:02.043Z,2.90
2022-08-03T07:30:02.061Z,3.10
2022-08-03T07:31:02.081Z,3.00
2022-08-03T07:32:02.103Z,2.90
2022-08-03T07:33:02.121Z,2.80
2022-08-03T07:34:02.133Z,2.80
2022-08-03T07:35:02.154Z,2.50
2022-08-03T07:36:02.173Z,2.50
2022-08-03T07:37:02.195Z,2.80
2022-08-03T07:38:02.207Z,2.70
2022-08-03T07:39:15.753Z,2.80
2022-08-03T07:40:02.251Z,3.00
2022-08-03T07:41:02.263Z,2.50
2022-08-03T07:42:02.286Z,2.70
2022-08-03T07:43:02.309Z,2.60
2022-08-03T07:44:02.329Z,2.90
2022-08-03T07:45:02.345Z,2.50
2022-08-03T07:46:02.363Z,2.90
2022-08-03T07:47:03.415Z,2.70
2022-08-03T07:48:02.400Z,2.80
2022-08-03T07:49:02.468Z,2.60
2022-08-03T07:50:02.439Z,2.90
2022-08-03T07:51:02.464Z,2.90
2022-08-03T07:52:02.477Z,2.60
2022-08-03T07:53:02.496Z,3.00
2022-08-03T07:54:02.522Z,2.50
2022-08-03T07:55:02.539Z,2.90
2022-08-03T07:56:02.558Z,2.60
2022-08-03T07:57:02.571Z,2.70
2022-08-03T07:58:02.595Z,2.70
2022-08-03T07:59:02.618Z,2.50
2022-08-03T08:00:02.907Z,2.20
2022-08-03T08:01:02.711Z,2.60
2022-08-03T08:02:02.671Z,2.40
2022-08-03T08:03:02.688Z,2.70
2022-08-03T08:04:02.715Z,2.90
2022-08-03T08:05:05.705Z,2.50
2022-08-03T08:06:02.746Z,2.50
2022-08-03T08:07:02.770Z,2.70
2022-08-03T08:08:02.784Z,2.90
2022-08-03T08:09:02.805Z,2.70
2022-08-03T08:10:02.824Z,2.60
2022-08-03T08:11:02.844Z,2.80
2022-08-03T08:12:02.864Z,2.70
2022-08-03T08:13:02.884Z,2.60
2022-08-03T08:14:02.907Z,2.90
2022-08-03T08:15:02.926Z,2.30
2022-08-03T08:16:02.943Z,2.40
2022-08-03T08:17:07.011Z,2.60
2022-08-03T08:18:02.986Z,2.80
2022-08-03T08:19:03.004Z,2.70
2022-08-03T08:20:03.027Z,2.70
2022-08-03T08:21:03.045Z,3.20
2022-08-03T08:22:03.230Z,2.80
2022-08-03T08:23:03.549Z,2.50
2022-08-03T08:24:03.100Z,2.50
2022-08-03T08:25:03.119Z,2.30
2022-08-03T08:26:03.139Z,2.60
2022-08-03T08:27:03.158Z,2.60
2022-08-03T08:28:29.458Z,2.30
2022-08-03T08:29:03.195Z,2.50
2022-08-03T08:30:10.173Z,2.60
2022-08-03T08:31:03.242Z,2.60
2022-08-03T08:32:03.257Z,2.60
2022-08-03T08:33:03.281Z,2.70
2022-08-03T08:34:04.554Z,2.80
2022-08-03T08:35:03.313Z,2.60
2022-08-03T08:36:03.332Z,2.50
2022-08-03T08:37:03.355Z,2.80
2022-08-03T08:38:05.737Z,2.70
2022-08-03T08:39:03.394Z,2.40
2022-08-03T08:40:03.410Z,2.60
2022-08-03T08:41:03.433Z,2.80
2022-08-03T08:42:03.452Z,2.70
2022-08-03T08:43:03.569Z,2.60
2022-08-03T08:44:03.493Z,2.10
2022-08-03T08:45:03.515Z,2.80
2022-08-03T08:46:03.528Z,2.70
2022-08-03T08:47:03.559Z,2.90
2022-08-03T08:48:07.848Z,2.60
2022-08-03T08:49:04.912Z,2.50
2022-08-03T08:50:10.070Z,2.50
2022-08-03T08:51:03.630Z,2.40
2022-08-03T08:52:03.650Z,2.40
2022-08-03T08:53:03.680Z,2.30
2022-08-03T08:54:03.703Z,2.10
2022-08-03T08:55:03.708Z,2.40
2022-08-03T08:56:03.729Z,2.60
2022-08-03T08:57:16.256Z,2.60
2022-08-03T08:58:03.773Z,2.50
2022-08-03T08:59:03.790Z,2.80
2022-08-03T09:00:03.812Z,2.80
2022-08-03T09:01:03.861Z,2.90
2022-08-03T09:02:03.849Z,2.70
2022-08-03T09:03:03.868Z,2.70
2022-08-03T09:04:03.893Z,2.60
2022-08-03T09:05:07.711Z,2.50
2022-08-03T09:06:03.932Z,2.70
2022-08-03T09:07:19.540Z,2.40
2022-08-03T09:08:03.975Z,2.70
2022-08-03T09:09:03.993Z,2.80
2022-08-03T09:10:12.495Z,2.60
2022-08-03T09:11:04.032Z,2.50
2022-08-03T09:12:21.122Z,2.40
2022-08-03T09:13:04.075Z,2.50
2022-08-03T09:14:04.098Z,2.70
2022-08-03T09:15:16.459Z,2.10
2022-08-03T09:16:04.137Z,2.50
2022-08-03T09:17:04.159Z,2.50
2022-08-03T09:18:04.276Z,2.20
2022-08-03T09:19:04.198Z,2.50
2022-08-03T09:20:04.223Z,2.40
2022-08-03T09:21:24.226Z,2.40
2022-08-03T09:22:04.267Z,2.30
2022-08-03T09:23:19.057Z,2.20
2022-08-03T09:24:05.878Z,2.60
2022-08-03T09:25:23.460Z,2.20
2022-08-03T09:26:04.350Z,2.10
2022-08-03T09:27:04.381Z,2.10
2022-08-03T09:28:04.393Z,2.20
2022-08-03T09:29:09.297Z,2.40
2022-08-03T09:30:04.439Z,2.30
2022-08-03T09:31:04.481Z,2.10
2022-08-03T09:32:04.489Z,2.10
2022-08-03T09:33:04.506Z,2.30
2022-08-03T09:34:04.528Z,2.10
2022-08-03T09:35:04.547Z,2.10
2022-08-03T09:36:04.585Z,2.20
2022-08-03T09:37:04.591Z,2.40
2022-08-03T09:38:12.787Z,2.00
2022-08-03T09:39:04.636Z,2.20
2022-08-03T09:40:04.671Z,2.20
2022-08-03T09:41:04.689Z,2.30
2022-08-03T09:42:04.703Z,2.30
2022-08-03T09:43:04.721Z,2.20
2022-08-03T09:44:04.847Z,2.10
2022-08-03T09:45:04.764Z,2.40
2022-08-03T09:46:04.817Z,2.30
2022-08-03T09:47:04.816Z,2.20
2022-08-03T09:48:04.834Z,2.10
2022-08-03T09:49:05.010Z,2.30
2022-08-03T09:50:04.877Z,2.20
2022-08-03T09:51:14.480Z,2.00
2022-08-03T09:52:32.781Z,2.10
2022-08-03T09:53:04.945Z,2.40
2022-08-03T09:54:08.580Z,2.10
2022-08-03T09:55:04.985Z,2.30
2022-08-03T09:56:34.684Z,2.20
2022-08-03T09:57:05.031Z,2.00
2022-08-03T09:58:05.057Z,2.00
2022-08-03T09:59:05.079Z,2.00
2022-08-03T10:00:08.144Z,2.00
2022-08-03T10:01:05.329Z,2.10
2022-08-03T10:02:05.145Z,2.30
2022-08-03T10:03:05.166Z,2.30
2022-08-03T10:04:05.470Z,2.40
2022-08-03T10:05:05.209Z,1.80
2022-08-03T10:06:05.231Z,2.00
2022-08-03T10:07:05.255Z,1.90
2022-08-03T10:08:05.276Z,2.20
2022-08-03T10:09:05.299Z,2.20
2022-08-03T10:10:29.060Z,2.00
2022-08-03T10:11:05.350Z,2.10
2022-08-03T10:12:05.370Z,2.00
2022-08-03T10:13:05.392Z,2.10
2022-08-03T10:14:05.419Z,2.00
2022-08-03T10:15:05.440Z,2.20
2022-08-03T10:16:24.945Z,2.10
2022-08-03T10:17:05.502Z,1.90
2022-08-03T10:18:05.508Z,1.80
2022-08-03T10:19:05.532Z,1.90
2022-08-03T10:20:05.552Z,2.10
2022-08-03T10:21:05.582Z,1.70
2022-08-03T10:22:05.601Z,1.90
2022-08-03T10:23:05.625Z,2.00
2022-08-03T10:24:05.646Z,2.10
2022-08-03T10:25:05.671Z,1.70
2022-08-03T10:26:05.693Z,1.80
2022-08-03T10:27:05.719Z,1.60
2022-08-03T10:28:05.739Z,1.60
2022-08-03T10:29:05.826Z,1.60
2022-08-03T10:30:05.788Z,1.80
2022-08-03T10:31:05.814Z,1.70
2022-08-03T10:32:05.833Z,2.30
2022-08-03T10:33:05.865Z,1.90
2022-08-03T10:34:05.882Z,1.90
2022-08-03T10:35:18.959Z,1.90
2022-08-03T10:36:05.929Z,1.90
2022-08-03T10:37:05.957Z,1.70
2022-08-03T10:38:05.979Z,1.80
2022-08-03T10:39:16.103Z,2.10
2022-08-03T10:40:06.127Z,1.80
2022-08-03T10:41:06.048Z,1.80
2022-08-03T10:42:06.073Z,2.10
2022-08-03T10:43:06.098Z,1.90
2022-08-03T10:44:06.119Z,2.10
2022-08-03T10:45:06.142Z,1.90
2022-08-03T10:46:06.176Z,2.00
2022-08-03T10:47:06.191Z,1.90
2022-08-03T10:48:06.214Z,1.70
2022-08-03T10:49:06.291Z,1.90
2022-08-03T10:50:06.274Z,1.80
2022-08-03T10:51:06.288Z,1.70
2022-08-03T10:52:13.393Z,1.90
2022-08-03T10:53:06.335Z,1.70
2022-08-03T10:54:06.351Z,1.70
2022-08-03T10:55:07.580Z,1.90
2022-08-03T10:56:06.399Z,1.80
2022-08-03T10:57:14.297Z,1.60
2022-08-03T10:58:11.038Z,1.60
2022-08-03T10:59:06.476Z,1.50
2022-08-03T11:00:06.498Z,1.70
2022-08-03T11:01:06.600Z,1.60
2022-08-03T11:02:06.543Z,1.60
2022-08-03T11:03:06.823Z,1.90
2022-08-03T11:04:11.063Z,2.10
2022-08-03T11:05:06.617Z,1.70
2022-08-03T11:06:06.641Z,1.70
2022-08-03T11:07:06.666Z,1.60
2022-08-03T11:08:06.689Z,1.50
2022-08-03T11:09:06.727Z,1.70
2022-08-03T11:10:10.542Z,1.80
2022-08-03T11:11:06.764Z,1.60
2022-08-03T11:12:06.792Z,1.70
2022-08-03T11:13:06.816Z,1.60
2022-08-03T11:14:06.835Z,1.60
2022-08-03T11:15:07.196Z,1.70
2022-08-03T11:16:10.896Z,1.60
2022-08-03T11:17:06.914Z,1.60
2022-08-03T11:18:06.952Z,1.70
2022-08-03T11:19:06.963Z,1.50
2022-08-03T11:20:06.989Z,1.60
2022-08-03T11:21:07.022Z,1.60
2022-08-03T11:22:07.033Z,2.10
2022-08-03T11:23:07.059Z,1.60
2022-08-03T11:24:07.211Z,1.60
2022-08-03T11:25:07.108Z,1.50
2022-08-03T11:26:07.244Z,1.60
2022-08-03T11:27:07.161Z,1.90
2022-08-03T11:28:07.183Z,1.80
2022-08-03T11:29:07.206Z,1.60
2022-08-03T11:30:07.244Z,1.80
2022-08-03T11:31:07.269Z,1.80
2022-08-03T11:32:07.285Z,1.90
2022-08-03T11:33:07.305Z,1.70
2022-08-03T11:34:07.336Z,1.90
2022-08-03T11:35:07.357Z,1.70
2022-08-03T11:36:07.381Z,1.70
2022-08-03T11:37:07.513Z,1.70
2022-08-03T11:38:07.429Z,1.60
2022-08-03T11:39:07.457Z,2.00
2022-08-03T11:40:07.482Z,1.70
2022-08-03T11:41:07.535Z,1.60
2022-08-03T11:42:07.534Z,1.60
2022-08-03T11:43:07.558Z,1.60
2022-08-03T11:44:07.589Z,1.90
2022-08-03T11:45:07.654Z,1.90
2022-08-03T11:46:07.640Z,2.00
2022-08-03T11:47:07.656Z,1.90
2022-08-03T11:48:07.688Z,1.90
2022-08-03T11:49:10.906Z,2.00
2022-08-03T11:50:07.743Z,1.90
2022-08-03T11:51:07.758Z,1.70
2022-08-03T11:52:07.778Z,1.80
2022-08-03T11:53:07.805Z,1.90
2022-08-03T11:54:07.833Z,1.80
2022-08-03T11:55:07.857Z,1.80
2022-08-03T11:56:12.906Z,1.80
2022-08-03T11:57:07.923Z,1.80
2022-08-03T11:59:17.092Z,1.60
2022-08-03T11:59:20.090Z,1.40
2022-08-03T12:00:08.019Z,1.20
2022-08-03T12:01:08.004Z,1.70
2022-08-03T12:02:08.033Z,1.60
2022-08-03T12:03:08.201Z,1.60
2022-08-03T12:04:08.078Z,1.50
2022-08-03T12:05:08.115Z,1.40
2022-08-03T12:06:08.128Z,1.50
2022-08-03T12:07:08.165Z,1.70
2022-08-03T12:08:08.181Z,1.70
2022-08-03T12:09:08.212Z,1.70
2022-08-03T12:10:08.230Z,1.50
2022-08-03T12:11:08.255Z,1.40
2022-08-03T12:12:08.280Z,1.30
2022-08-03T12:14:05.736Z,1.40
2022-08-03T12:14:50.374Z,1.30
2022-08-03T12:15:08.360Z,1.30
2022-08-03T12:16:08.383Z,1.40
2022-08-03T12:17:08.409Z,1.40
2022-08-03T12:18:08.432Z,1.20
2022-08-03T12:19:08.456Z,1.20
2022-08-03T12:20:08.485Z,1.20
2022-08-03T12:21:08.508Z,1.10
2022-08-03T12:22:08.533Z,1.10
2022-08-03T12:23:08.555Z,1.40
2022-08-03T12:24:08.583Z,1.20
2022-08-03T12:25:08.607Z,1.40
2022-08-03T12:26:08.631Z,1.50
2022-08-03T12:27:08.662Z,1.40
2022-08-03T12:28:36.204Z,1.40
2022-08-03T12:29:08.710Z,1.60
2022-08-03T12:30:08.736Z,1.60
2022-08-03T12:31:08.767Z,1.50
2022-08-03T12:32:08.789Z,1.60
2022-08-03T12:33:08.809Z,1.60
2022-08-03T12:34:08.841Z,1.40
2022-08-03T12:35:08.863Z,1.50
2022-08-03T12:36:08.898Z,1.40
2022-08-03T12:37:19.312Z,1.70
2022-08-03T12:38:08.938Z,1.40
2022-08-03T12:39:09.069Z,1.60
2022-08-03T12:40:10.828Z,1.50
2022-08-03T12:41:09.022Z,1.70
2022-08-03T12:42:09.048Z,1.90
2022-08-03T12:43:09.074Z,1.60
2022-08-03T12:44:09.096Z,1.60
2022-08-03T12:45:09.120Z,1.70
2022-08-03T12:46:09.148Z,1.70
2022-08-03T12:47:09.176Z,1.60
2022-08-03T12:48:09.199Z,1.50
2022-08-03T12:49:09.375Z,1.80
2022-08-03T12:50:09.255Z,1.70
2022-08-03T12:51:09.276Z,1.70
2022-08-03T12:52:09.312Z,1.70
2022-08-03T12:53:09.348Z,1.80
2022-08-03T12:54:09.352Z,1.50
2022-08-03T12:55:09.375Z,1.70
2022-08-03T12:56:09.401Z,2.00
2022-08-03T12:57:09.430Z,1.60
2022-08-03T12:58:09.462Z,1.70
2022-08-03T12:59:09.480Z,1.60
2022-08-03T13:00:13.053Z,1.60
2022-08-03T13:01:10.761Z,1.60
2022-08-03T13:02:10.024Z,1.70
2022-08-03T13:04:09.715Z,2.10
2022-08-03T13:05:09.641Z,2.20
2022-08-03T13:06:09.666Z,2.20
2022-08-03T13:07:14.091Z,2.30
2022-08-03T13:08:09.714Z,2.10
2022-08-03T13:09:09.745Z,1.90
2022-08-03T13:10:09.786Z,1.80
2022-08-03T13:11:09.795Z,2.10
2022-08-03T13:12:09.815Z,2.10
2022-08-03T13:13:09.845Z,1.70
2022-08-03T13:14:09.872Z,2.20
2022-08-03T13:15:09.901Z,2.10
2022-08-03T13:16:09.923Z,2.10
2022-08-03T13:17:09.945Z,2.10
2022-08-03T13:18:09.969Z,2.20
2022-08-03T13:19:09.998Z,2.10
2022-08-03T13:20:10.025Z,2.30